Time;durP1;ratioP1;P1;durP2;ratioP2;P2;SDS_P1;SDS_P2;PMS_P1;PMS_P2;Temp;Humidity;BMP_temperature;BMP_pressure;BME280_temperature;BME280_humidity;BME280_pressure;Samples;Min_cycle;Max_cycle;Signal;HPM_P1;HPM_P2
2023/02/14 00:00:54;;;;;;;38.88;12.00;;;;;;;3.66;74.05;101699.97;4982025;28;20053;-42
2023/02/14 00:03:21;;;;;;;34.20;12.27;;;;;;;3.65;74.13;101698.22;4980891;28;20506;-41
2023/02/14 00:05:48;;;;;;;33.38;12.98;;;;;;;3.65;74.25;101705.91;4984379;28;20542;-41
2023/02/14 00:08:15;;;;;;;44.17;14.48;;;;;;;3.62;74.27;101698.97;4983835;28;20554;-41
2023/02/14 00:10:41;;;;;;;37.65;13.20;;;;;;;3.63;74.14;101704.94;4985416;28;20120;-42
2023/02/14 00:13:08;;;;;;;36.85;12.45;;;;;;;3.62;74.17;101703.19;4984318;28;20112;-42
2023/02/14 00:15:35;;;;;;;35.78;12.70;;;;;;;3.60;74.31;101706.56;4979742;28;20074;-42
2023/02/14 00:18:02;;;;;;;31.35;10.48;;;;;;;3.57;74.18;101696.16;4984384;28;20524;-41
2023/02/14 00:20:29;;;;;;;38.90;12.77;;;;;;;3.59;74.73;101702.22;4982890;28;20101;-41
2023/02/14 00:22:55;;;;;;;34.55;12.13;;;;;;;3.57;74.71;101691.00;4985282;28;20109;-41
2023/02/14 00:25:22;;;;;;;37.72;12.95;;;;;;;3.57;74.98;101705.50;4979790;28;20065;-42
2023/02/14 00:27:49;;;;;;;31.38;11.98;;;;;;;3.50;75.15;101696.63;4977408;28;20450;-41
2023/02/14 00:30:16;;;;;;;38.45;12.98;;;;;;;3.42;75.35;101700.44;4980314;28;20521;-40
2023/02/14 00:32:42;;;;;;;34.30;11.10;;;;;;;3.37;75.03;101691.66;4982668;28;20046;-41
2023/02/14 00:35:10;;;;;;;32.40;11.55;;;;;;;3.28;75.16;101703.13;4981991;28;20081;-41
2023/02/14 00:37:37;;;;;;;32.25;11.15;;;;;;;3.21;74.82;101696.81;4980947;28;20454;-40
2023/02/14 00:40:06;;;;;;;31.67;10.90;;;;;;;3.15;74.66;101698.16;4974553;28;20088;-41
2023/02/14 00:42:33;;;;;;;38.72;11.88;;;;;;;3.12;74.55;101692.88;4964832;28;20086;-41
2023/02/14 00:44:59;;;;;;;31.42;11.38;;;;;;;3.10;74.56;101691.94;4984529;28;20120;-41
2023/02/14 00:47:26;;;;;;;31.10;11.40;;;;;;;3.07;74.43;101692.63;4985253;28;20100;-41
2023/02/14 00:49:53;;;;;;;40.42;12.35;;;;;;;3.06;74.11;101690.84;4982395;28;20046;-41
2023/02/14 00:52:19;;;;;;;34.28;10.90;;;;;;;3.05;74.94;101695.13;4986190;28;20109;-41
2023/02/14 00:54:46;;;;;;;35.95;12.98;;;;;;;3.03;73.98;101689.00;4984004;28;20124;-41
2023/02/14 00:57:12;;;;;;;39.15;11.93;;;;;;;3.03;74.15;101680.44;4984791;28;20624;-41
2023/02/14 00:59:39;;;;;;;33.65;11.75;;;;;;;3.03;74.13;101695.81;4983626;28;20068;-41
2023/02/14 01:02:06;;;;;;;35.20;11.20;;;;;;;3.00;73.89;101687.97;4984654;28;20050;-41
2023/02/14 01:04:32;;;;;;;37.88;12.38;;;;;;;2.98;74.43;101690.44;4985007;28;20092;-41
2023/02/14 01:06:59;;;;;;;35.42;11.63;;;;;;;2.98;74.27;101687.91;4985186;28;20046;-41
2023/02/14 01:09:26;;;;;;;37.15;12.23;;;;;;;2.97;73.90;101686.09;4984054;28;20430;-41
2023/02/14 01:11:52;;;;;;;36.53;12.52;;;;;;;2.98;74.99;101682.78;4984520;28;20077;-41
2023/02/14 01:14:19;;;;;;;38.80;13.25;;;;;;;2.99;74.28;101684.53;4978465;28;20742;-41
2023/02/14 01:16:45;;;;;;;38.75;12.65;;;;;;;2.99;74.86;101678.50;4983013;28;20089;-41
2023/02/14 01:19:12;;;;;;;45.40;13.68;;;;;;;2.98;75.26;101672.53;4983363;28;20054;-41
2023/02/14 01:21:40;;;;;;;45.40;14.90;;;;;;;2.98;75.08;101679.31;4978916;28;20100;-41
2023/02/14 01:24:08;;;;;;;38.92;12.75;;;;;;;2.95;74.05;101682.59;4978222;28;20078;-41
2023/02/14 01:26:35;;;;;;;36.42;12.70;;;;;;;2.92;74.67;101677.31;4983749;28;20042;-42
2023/02/14 01:29:03;;;;;;;37.83;13.35;;;;;;;2.92;74.20;101667.06;4984566;28;20101;-41
2023/02/14 01:31:31;;;;;;;38.17;12.68;;;;;;;2.90;74.19;101669.53;4981739;28;20123;-41
2023/02/14 01:33:58;;;;;;;42.28;14.13;;;;;;;2.88;74.55;101675.38;4979410;28;20562;-42
2023/02/14 01:36:28;;;;;;;34.20;13.20;;;;;;;2.87;75.28;101683.84;4980097;28;20470;-41
2023/02/14 01:38:58;;;;;;;40.08;13.43;;;;;;;2.85;74.02;101676.09;4979615;28;20077;-41
2023/02/14 01:41:27;;;;;;;35.60;11.85;;;;;;;2.85;74.19;101675.19;4983140;28;20113;-41
2023/02/14 01:46:34;;;;;;;42.97;14.65;;;;;;;2.83;74.18;101682.78;5005882;28;20400;-41
2023/02/14 01:51:41;;;;;;;44.55;14.85;;;;;;;2.84;74.06;101669.22;5092958;27;20391;-41
2023/02/14 01:54:10;;;;;;;42.08;13.40;;;;;;;2.83;75.42;101677.66;5066636;28;20072;-41
2023/02/14 01:56:40;;;;;;;39.88;14.50;;;;;;;2.83;75.41;101668.31;5063086;28;20578;-42
2023/02/14 01:59:12;;;;;;;43.65;15.38;;;;;;;2.81;74.20;101664.78;5061606;28;20041;-42
2023/02/14 02:01:40;;;;;;;41.45;14.15;;;;;;;2.81;74.45;101675.03;5070764;28;20425;-41
2023/02/14 02:04:12;;;;;;;41.85;14.77;;;;;;;2.81;74.51;101676.72;5062076;28;20048;-41
2023/02/14 02:06:42;;;;;;;42.13;15.15;;;;;;;2.78;74.90;101659.53;5072510;28;20331;-42
2023/02/14 02:09:15;;;;;;;47.95;16.30;;;;;;;2.78;75.81;101669.75;5075966;28;20108;-41
2023/02/14 02:11:42;;;;;;;40.83;14.77;;;;;;;2.75;74.83;101672.16;5082423;28;20044;-42
2023/02/14 02:14:14;;;;;;;39.80;14.35;;;;;;;2.73;75.14;101665.19;5094572;28;20537;-41
2023/02/14 02:19:59;;;;;;;44.65;13.80;;;;;;;2.66;75.05;101669.94;5095145;27;20739;-42
2023/02/14 02:28:55;;;;;;;42.30;15.40;;;;;;;2.54;74.93;101659.91;5011487;27;20392;-42
2023/02/14 02:31:42;;;;;;;40.47;15.32;;;;;;;2.54;74.77;101662.44;4992486;28;20240;-41
2023/02/14 02:34:49;;;;;;;38.80;15.40;;;;;;;2.53;74.54;101663.25;4997118;28;20054;-42
2023/02/14 02:53:48;;;;;;;40.33;14.02;;;;;;;2.46;74.93;101639.81;5010126;28;20080;-42
2023/02/14 02:59:17;;;;;;;61.47;22.02;;;;;;;2.83;73.19;101637.63;5052921;27;20419;-41
2023/02/14 03:01:56;;;;;;;43.67;14.95;;;;;;;2.61;74.14;101645.78;5059058;28;20049;-42
2023/02/14 03:10:01;;;;;;;44.17;14.25;;;;;;;2.45;75.05;101649.16;5049350;28;20576;-42
2023/02/14 03:12:46;;;;;;;41.22;13.77;;;;;;;2.41;75.04;101652.34;5057358;28;20044;-42
2023/02/14 03:20:59;;;;;;;45.78;15.05;;;;;;;2.34;75.08;101640.00;5047573;28;20386;-42
2023/02/14 03:23:34;;;;;;;53.90;15.90;;;;;;;2.32;75.01;101639.91;4998961;28;20125;-42
2023/02/14 03:29:04;;;;;;;43.22;15.98;;;;;;;2.28;75.57;101631.19;5005441;28;20430;-42
2023/02/14 03:34:22;;;;;;;46.83;13.07;;;;;;;2.31;75.76;101631.38;5096517;27;20393;-42
2023/02/14 03:42:10;;;;;;;50.35;17.02;;;;;;;2.51;74.59;101626.50;5073317;27;20409;-41
2023/02/14 03:44:39;;;;;;;45.25;13.50;;;;;;;2.41;74.99;101616.53;5033510;28;20489;-42
2023/02/14 03:47:10;;;;;;;47.88;15.07;;;;;;;2.37;75.26;101614.59;5015098;28;20552;-41
2023/02/14 03:49:44;;;;;;;49.17;15.05;;;;;;;2.35;75.42;101611.97;5026485;28;20107;-41
2023/02/14 03:52:13;;;;;;;48.10;14.63;;;;;;;2.33;75.95;101612.66;5034661;28;20045;-41
2023/02/14 03:54:40;;;;;;;44.05;13.07;;;;;;;2.31;74.82;101613.47;5021271;28;20050;-41
2023/02/14 03:57:23;;;;;;;47.83;13.68;;;;;;;2.27;76.02;101603.84;5019900;28;20136;-40
2023/02/14 03:59:50;;;;;;;43.53;13.35;;;;;;;2.26;74.79;101602.09;5019009;28;20077;-41
2023/02/14 04:02:23;;;;;;;44.58;13.52;;;;;;;2.24;75.49;101603.69;5019690;28;20069;-41
2023/02/14 04:04:53;;;;;;;36.83;12.88;;;;;;;2.21;74.98;101603.50;5021311;28;20075;-41
2023/02/14 04:07:22;;;;;;;45.05;13.95;;;;;;;2.20;75.10;101600.88;5050765;28;20044;-41
2023/02/14 04:09:49;;;;;;;45.53;13.77;;;;;;;2.17;75.86;101597.31;5057690;28;20135;-41
2023/02/14 04:12:17;;;;;;;53.15;15.15;;;;;;;2.17;75.57;101604.13;5054602;28;20048;-41
2023/02/14 04:14:57;;;;;;;42.30;13.52;;;;;;;2.17;76.46;101601.56;5054978;28;20044;-42
2023/02/14 04:20:11;;;;;;;44.63;15.85;;;;;;;2.18;75.74;101599.09;5050003;28;20579;-41
2023/02/14 04:22:37;;;;;;;49.42;14.05;;;;;;;2.19;75.25;101599.97;5058146;28;20080;-42
2023/02/14 04:25:04;;;;;;;45.78;15.77;;;;;;;2.20;76.58;101599.19;5047473;28;20116;-41
2023/02/14 04:27:30;;;;;;;44.97;14.52;;;;;;;2.21;76.17;101597.50;5052250;28;20128;-41
2023/02/14 04:29:57;;;;;;;39.75;13.52;;;;;;;2.22;76.38;101599.25;5049627;28;20052;-41
2023/02/14 04:32:24;;;;;;;48.75;15.93;;;;;;;2.21;75.49;101597.50;5055929;28;20040;-41
2023/02/14 04:34:50;;;;;;;46.65;15.88;;;;;;;2.19;75.92;101587.19;5055388;28;20045;-42
2023/02/14 04:37:18;;;;;;;41.22;14.10;;;;;;;2.21;76.34;101603.50;5050983;28;20045;-41
2023/02/14 04:39:45;;;;;;;43.75;13.73;;;;;;;2.20;76.41;101590.63;5051955;28;20084;-40
2023/02/14 04:42:13;;;;;;;51.95;16.35;;;;;;;2.19;75.61;101589.75;5053089;28;20045;-41
2023/02/14 04:44:39;;;;;;;41.05;13.57;;;;;;;2.17;75.44;101593.91;5060035;28;20542;-41
2023/02/14 04:47:07;;;;;;;51.90;15.45;;;;;;;2.19;75.76;101599.97;5060195;28;20079;-41
2023/02/14 04:49:34;;;;;;;54.10;14.88;;;;;;;2.18;76.01;101596.56;5039117;28;20049;-41
2023/02/14 04:52:01;;;;;;;53.70;16.00;;;;;;;2.18;76.59;101598.22;5044169;28;20095;-41
2023/02/14 04:54:28;;;;;;;50.80;16.13;;;;;;;2.18;76.84;101594.00;5040821;28;20507;-41
2023/02/14 04:56:55;;;;;;;49.42;15.65;;;;;;;2.18;76.97;101595.66;5041278;28;20061;-41
2023/02/14 04:59:21;;;;;;;46.45;15.98;;;;;;;2.17;76.48;101602.44;5040812;28;20562;-41
2023/02/14 05:01:50;;;;;;;46.75;14.95;;;;;;;2.19;76.95;101597.41;5041139;28;20037;-40
2023/02/14 05:04:17;;;;;;;54.55;15.13;;;;;;;2.21;75.66;101603.50;5038395;28;20345;-40
2023/02/14 05:06:44;;;;;;;48.10;13.80;;;;;;;2.23;76.08;101596.78;5044532;28;20500;-41
2023/02/14 05:09:10;;;;;;;53.67;15.07;;;;;;;2.28;75.67;101605.63;5041885;28;20560;-41
2023/02/14 05:11:37;;;;;;;48.40;14.27;;;;;;;2.29;76.90;101607.38;5044248;28;20052;-41
2023/02/14 05:14:03;;;;;;;62.72;14.57;;;;;;;2.31;76.91;101605.81;5042453;28;20087;-41
2023/02/14 05:16:30;;;;;;;55.75;15.05;;;;;;;2.34;75.57;101604.19;5038048;28;20539;-41
2023/02/14 05:18:57;;;;;;;54.28;14.85;;;;;;;2.34;76.72;101599.09;5035534;28;20053;-41
2023/02/14 05:21:23;;;;;;;50.58;12.85;;;;;;;2.36;77.06;101612.84;5043216;28;20438;-41
2023/02/14 05:23:50;;;;;;;43.60;13.57;;;;;;;2.34;76.65;101599.09;5038912;28;20143;-41
2023/02/14 05:26:17;;;;;;;56.80;12.82;;;;;;;2.35;76.05;101601.72;5043075;28;20274;-42
2023/02/14 05:28:43;;;;;;;40.13;11.50;;;;;;;2.34;76.25;101599.09;5016608;28;20462;-42
2023/02/14 05:31:10;;;;;;;42.35;12.63;;;;;;;2.35;75.75;101604.28;5017648;28;20115;-41
2023/02/14 05:33:37;;;;;;;45.45;11.88;;;;;;;2.36;75.96;101607.72;5015143;28;20048;-40
2023/02/14 05:36:04;;;;;;;52.47;11.55;;;;;;;2.33;75.92;101603.31;5024804;28;20072;-41
2023/02/14 05:38:32;;;;;;;49.40;11.07;;;;;;;2.29;76.54;101597.16;5041027;28;20531;-41
2023/02/14 05:40:58;;;;;;;34.55;10.68;;;;;;;2.28;76.49;101603.06;5036114;28;20496;-42
2023/02/14 05:43:25;;;;;;;52.17;11.77;;;;;;;2.28;76.75;101604.72;5041827;28;20451;-41
2023/02/14 05:45:53;;;;;;;49.03;10.75;;;;;;;2.27;76.02;101606.41;5041415;28;20362;-41
2023/02/14 05:48:20;;;;;;;45.67;11.30;;;;;;;2.24;76.53;101603.69;5041467;28;20056;-41
2023/02/14 05:50:47;;;;;;;44.80;9.85;;;;;;;2.24;77.69;101608.81;5043204;28;20130;-41
2023/02/14 05:53:14;;;;;;;31.45;10.00;;;;;;;2.24;76.56;101606.25;5041139;28;20673;-41
2023/02/14 05:55:40;;;;;;;38.92;10.40;;;;;;;2.25;76.82;101608.00;5038159;28;20122;-42
2023/02/14 05:58:07;;;;;;;37.70;10.52;;;;;;;2.25;77.04;101610.56;5021593;28;20057;-42
2023/02/14 06:00:34;;;;;;;44.28;10.10;;;;;;;2.25;76.85;101604.56;5021644;28;20065;-41
2023/02/14 06:03:00;;;;;;;63.13;11.43;;;;;;;2.24;76.37;101603.69;5020108;28;20576;-42
2023/02/14 06:05:27;;;;;;;55.88;11.57;;;;;;;2.27;76.24;101608.09;5023209;28;20085;-41
2023/02/14 06:07:53;;;;;;;57.65;10.98;;;;;;;2.28;76.54;101608.19;5019451;28;20569;-41
2023/02/14 06:10:22;;;;;;;51.88;10.45;;;;;;;2.30;77.78;101606.56;5023793;28;20049;-41
2023/02/14 06:12:50;;;;;;;53.15;11.63;;;;;;;2.32;77.59;101611.78;5016363;28;20180;-41
2023/02/14 06:15:18;;;;;;;53.08;10.85;;;;;;;2.35;77.04;101600.84;5019714;28;20099;-41
2023/02/14 06:17:46;;;;;;;64.47;10.80;;;;;;;2.36;77.28;101608.59;5021007;28;20136;-41
2023/02/14 06:20:13;;;;;;;50.15;11.60;;;;;;;2.37;77.86;101612.03;5039526;28;20092;-42
2023/02/14 06:22:39;;;;;;;56.47;10.75;;;;;;;2.37;77.27;101604.38;5046993;28;20431;-41
2023/02/14 06:25:06;;;;;;;37.72;10.57;;;;;;;2.36;77.33;101600.06;5040776;28;20136;-41
2023/02/14 06:27:33;;;;;;;46.40;11.40;;;;;;;2.34;76.76;101604.19;5032556;28;20100;-42
2023/02/14 06:30:00;;;;;;;42.22;11.43;;;;;;;2.38;77.14;101603.56;5019389;28;20397;-41
2023/02/14 06:32:26;;;;;;;55.88;10.70;;;;;;;2.38;78.04;101606.13;5037351;28;20064;-41
2023/02/14 06:34:53;;;;;;;97.47;12.10;;;;;;;2.39;77.37;101623.22;5040924;28;20118;-41
2023/02/14 06:37:19;;;;;;;59.88;12.35;;;;;;;2.41;77.36;101619.97;5041986;28;20076;-41
2023/02/14 06:39:46;;;;;;;76.07;10.85;;;;;;;2.41;76.41;101616.53;5042483;28;20076;-41
2023/02/14 06:42:13;;;;;;;61.42;10.50;;;;;;;2.39;77.63;101625.78;5041585;28;20089;-42
2023/02/14 06:44:39;;;;;;;43.13;10.52;;;;;;;2.37;77.69;101629.94;5036781;28;20076;-41
2023/02/14 06:47:07;;;;;;;70.72;11.63;;;;;;;2.36;76.70;101628.19;5040071;28;20076;-41
2023/02/14 06:49:33;;;;;;;64.25;12.15;;;;;;;2.37;77.69;101624.84;5043880;28;20241;-40
2023/02/14 06:52:00;;;;;;;64.78;11.05;;;;;;;2.35;76.80;101626.41;5037168;28;20057;-41
2023/02/14 06:54:27;;;;;;;62.70;12.63;;;;;;;2.33;77.98;101620.34;5037798;28;20496;-41
2023/02/14 06:56:53;;;;;;;40.33;10.20;;;;;;;2.30;77.63;101629.59;5033692;28;20498;-41
2023/02/14 06:59:20;;;;;;;41.88;10.27;;;;;;;2.28;77.78;101636.31;5015473;28;20057;-41
2023/02/14 07:01:47;;;;;;;41.70;10.95;;;;;;;2.30;77.25;101634.69;5032166;28;20129;-41
2023/02/14 07:04:13;;;;;;;45.50;10.63;;;;;;;2.34;77.22;101629.78;5037355;28;20124;-41
2023/02/14 07:06:40;;;;;;;42.80;10.35;;;;;;;2.33;78.07;101628.00;5032679;28;20088;-41
2023/02/14 07:09:07;;;;;;;38.92;9.50;;;;;;;2.33;77.39;101644.22;5030042;28;20065;-41
2023/02/14 07:11:33;;;;;;;87.05;11.93;;;;;;;2.35;77.09;101649.41;5019951;28;20051;-41
2023/02/14 07:14:00;;;;;;;60.75;11.88;;;;;;;2.37;77.89;101650.41;5012160;28;20057;-40
2023/02/14 07:16:26;;;;;;;69.97;10.82;;;;;;;2.38;77.72;101644.50;5011687;28;20057;-41
2023/02/14 07:18:53;;;;;;;73.72;11.48;;;;;;;2.39;76.84;101653.91;5018509;28;20072;-41
2023/02/14 07:21:19;;;;;;;65.07;10.85;;;;;;;2.39;77.75;101657.38;5019209;28;20132;-41
2023/02/14 07:23:48;;;;;;;48.15;10.20;;;;;;;2.39;77.58;101656.47;5024203;28;20084;-41
2023/02/14 07:26:16;;;;;;;49.50;10.88;;;;;;;2.40;77.41;101660.81;5021489;28;20132;-41
2023/02/14 07:28:44;;;;;;;43.40;10.35;;;;;;;2.44;77.02;101667.88;5017031;28;20056;-41
2023/02/14 07:31:11;;;;;;;67.35;11.23;;;;;;;2.47;77.11;101667.16;5027975;28;20172;-41
2023/02/14 07:33:38;;;;;;;61.47;10.85;;;;;;;2.49;78.34;101666.44;5030150;28;20068;-41
2023/02/14 07:36:06;;;;;;;33.53;10.50;;;;;;;2.53;77.21;101663.25;5020151;28;20111;-41
2023/02/14 07:38:34;;;;;;;46.30;11.23;;;;;;;2.56;77.66;101658.31;5019610;28;20053;-41
2023/02/14 07:41:01;;;;;;;83.50;10.43;;;;;;;2.59;76.68;101662.72;5021660;28;20379;-41
2023/02/14 07:43:27;;;;;;;59.97;10.50;;;;;;;2.62;77.01;101668.00;5021038;28;20501;-41
2023/02/14 07:45:54;;;;;;;53.47;10.55;;;;;;;2.64;76.91;101670.66;5012224;28;20761;-41
2023/02/14 07:48:21;;;;;;;51.33;11.43;;;;;;;2.67;77.17;101666.59;5019694;28;20085;-41
2023/02/14 07:50:47;;;;;;;42.25;10.35;;;;;;;2.69;77.53;101670.13;5016754;28;20061;-41
2023/02/14 07:53:14;;;;;;;53.83;11.43;;;;;;;2.72;76.76;101664.28;5023357;28;20038;-41
2023/02/14 07:55:41;;;;;;;70.15;11.18;;;;;;;2.75;77.41;101664.47;5017631;28;20612;-41
2023/02/14 07:58:08;;;;;;;51.30;10.73;;;;;;;2.75;77.53;101664.47;5018958;28;20089;-42
2023/02/14 08:00:34;;;;;;;63.10;10.57;;;;;;;2.77;78.03;101675.66;5024601;28;20080;-41
2023/02/14 08:03:01;;;;;;;46.65;10.32;;;;;;;2.79;78.17;101676.63;5034412;28;20457;-41
2023/02/14 08:05:27;;;;;;;51.65;11.50;;;;;;;2.83;78.09;101673.44;5014326;28;20095;-41
2023/02/14 08:07:54;;;;;;;71.32;10.93;;;;;;;2.87;77.92;101681.31;5015463;28;20721;-41
2023/02/14 08:10:21;;;;;;;88.05;11.43;;;;;;;2.85;78.33;101670.09;5010535;28;20179;-41
2023/02/14 08:13:03;;;;;;;73.20;11.30;;;;;;;2.82;77.54;101681.94;5024592;28;20722;-41
2023/02/14 08:18:21;;;;;;;57.95;9.95;;;;;;;2.85;77.47;101675.19;5007649;28;20073;-41
2023/02/14 08:20:48;;;;;;;57.00;10.02;;;;;;;2.85;78.40;101675.19;5016196;28;20500;-41
2023/02/14 08:23:16;;;;;;;70.18;10.40;;;;;;;2.85;78.20;101670.97;5021546;28;20037;-41
2023/02/14 08:25:43;;;;;;;98.22;12.43;;;;;;;2.89;77.70;101666.91;5034118;28;20103;-41
2023/02/14 08:28:12;;;;;;;75.75;10.95;;;;;;;2.88;78.07;101670.25;5033272;28;20089;-41
2023/02/14 08:30:38;;;;;;;67.90;10.10;;;;;;;2.87;78.58;101671.06;5038753;28;20049;-41
2023/02/14 08:33:05;;;;;;;43.83;10.40;;;;;;;2.91;78.50;101678.09;5037869;28;20083;-41
2023/02/14 08:35:32;;;;;;;71.50;11.45;;;;;;;2.94;77.69;101684.25;5040109;28;20467;-41
2023/02/14 08:37:59;;;;;;;93.53;11.32;;;;;;;2.97;78.31;101680.13;5038150;28;20080;-41
2023/02/14 08:40:26;;;;;;;44.58;8.02;;;;;;;2.94;79.43;101680.84;5037931;28;20041;-41
2023/02/14 08:42:53;;;;;;;44.80;9.65;;;;;;;2.97;78.56;101664.78;5034297;28;20133;-41
2023/02/14 08:45:20;;;;;;;76.65;11.57;;;;;;;2.97;78.23;101670.75;5040014;28;20544;-42
2023/02/14 08:47:46;;;;;;;60.25;10.40;;;;;;;2.99;79.04;101679.41;5042513;28;20084;-41
2023/02/14 08:50:15;;;;;;;38.75;11.95;;;;;;;3.03;78.07;101671.09;5034842;28;20103;-41
2023/02/14 08:52:43;;;;;;;70.65;11.27;;;;;;;3.06;78.14;101676.38;5039759;28;20072;-42
2023/02/14 08:55:12;;;;;;;45.40;12.18;;;;;;;3.14;78.33;101683.59;5037221;28;20057;-41
2023/02/14 08:57:39;;;;;;;47.53;12.00;;;;;;;3.19;78.33;101677.03;5016440;28;20054;-41
2023/02/14 09:00:07;;;;;;;53.42;11.18;;;;;;;3.24;78.35;101675.59;5040768;28;20049;-41
2023/02/14 09:02:34;;;;;;;51.75;11.57;;;;;;;3.29;78.13;101683.53;5038170;28;20045;-41
2023/02/14 09:05:01;;;;;;;64.00;11.98;;;;;;;3.33;78.13;101681.25;5038703;28;20072;-41
2023/02/14 09:07:28;;;;;;;58.40;10.80;;;;;;;3.34;78.39;101688.13;5035403;28;20566;-42
2023/02/14 09:09:54;;;;;;;46.53;10.55;;;;;;;3.39;79.80;101680.69;5024175;28;20374;-41
2023/02/14 09:12:21;;;;;;;56.83;11.85;;;;;;;3.45;78.89;101687.81;5011499;28;20065;-41
2023/02/14 09:14:48;;;;;;;57.42;10.57;;;;;;;3.51;78.43;101683.00;5014594;28;20052;-42
2023/02/14 09:17:15;;;;;;;85.50;12.43;;;;;;;3.55;78.89;101679.78;5019650;28;20055;-42
2023/02/14 09:19:41;;;;;;;84.93;13.45;;;;;;;3.62;78.67;101682.69;5020073;28;20076;-41
2023/02/14 09:22:10;;;;;;;60.17;11.02;;;;;;;3.67;79.30;101686.34;5034639;28;20045;-41
2023/02/14 09:24:38;;;;;;;52.22;12.20;;;;;;;3.73;78.66;101684.13;5027147;28;20127;-41
2023/02/14 09:27:06;;;;;;;77.30;12.20;;;;;;;3.79;78.50;101687.03;5012513;28;20076;-41
2023/02/14 09:29:33;;;;;;;63.80;12.20;;;;;;;3.85;78.73;101682.19;5032421;28;20073;-41
2023/02/14 09:32:01;;;;;;;62.28;10.73;;;;;;;3.90;78.69;101679.88;5016149;28;20089;-41
2023/02/14 09:34:28;;;;;;;51.13;12.35;;;;;;;3.96;78.76;101679.31;5034485;28;20496;-41
2023/02/14 09:36:55;;;;;;;89.10;13.55;;;;;;;4.02;78.83;101674.47;5021963;28;20056;-42
2023/02/14 09:39:22;;;;;;;56.60;12.00;;;;;;;4.07;78.95;101667.91;5021210;28;20343;-41
2023/02/14 09:42:02;;;;;;;76.47;12.32;;;;;;;4.17;78.82;101668.34;5021661;28;20065;-42
2023/02/14 09:44:36;;;;;;;65.80;11.75;;;;;;;4.25;78.85;101661.91;5013631;28;20148;-42
2023/02/14 09:47:20;;;;;;;55.78;10.85;;;;;;;4.27;79.38;101665.44;5041240;28;20044;-42
2023/02/14 09:49:49;;;;;;;36.75;10.57;;;;;;;4.34;79.25;101667.53;5019186;28;20065;-42
2023/02/14 09:52:18;;;;;;;57.08;11.48;;;;;;;4.39;79.06;101665.16;5020438;28;20049;-41
2023/02/14 09:54:50;;;;;;;44.97;11.20;;;;;;;4.47;79.47;101668.09;5018003;28;20045;-42
2023/02/14 10:02:45;;;;;;;40.15;11.07;;;;;;;4.72;79.19;101674.41;5084829;27;21088;-43
2023/02/14 10:05:31;;;;;;;35.53;10.73;;;;;;;4.79;80.03;101675.59;5041222;28;20110;-43
2023/02/14 10:10:45;;;;;;;44.05;12.18;;;;;;;4.92;79.54;101669.31;5015856;27;20762;-43
2023/02/14 10:13:18;;;;;;;39.70;13.40;;;;;;;4.97;78.76;101666.16;4995539;28;20081;-43
2023/02/14 10:15:49;;;;;;;41.20;13.00;;;;;;;5.01;78.76;101673.19;4993159;28;20046;-43
2023/02/14 10:18:41;;;;;;;37.40;12.93;;;;;;;5.06;79.50;101670.00;4996043;28;20042;-44
2023/02/14 10:21:14;;;;;;;36.40;12.43;;;;;;;5.11;79.02;101671.97;4988996;28;20567;-43
2023/02/14 10:23:47;;;;;;;34.00;12.43;;;;;;;5.20;78.93;101684.34;5000932;28;20089;-44
2023/02/14 10:26:23;;;;;;;44.53;14.52;;;;;;;5.25;78.98;101676.84;4999078;28;20049;-44
2023/02/14 10:28:50;;;;;;;38.38;13.35;;;;;;;5.31;79.93;101679.72;4994760;28;20845;-43
2023/02/14 10:34:03;;;;;;;40.67;15.02;;;;;;;5.43;79.79;101674.22;5019081;27;20956;-42
2023/02/14 10:41:52;;;;;;;47.95;14.90;;;;;;;5.64;79.97;101671.72;5085093;27;20382;-42
2023/02/14 10:49:53;;;;;;;44.60;13.07;;;;;;;5.82;79.15;101665.63;5023609;27;20410;-43
2023/02/14 10:55:24;;;;;;;47.55;12.88;;;;;;;5.94;79.56;101664.41;5024921;28;20842;-43
2023/02/14 10:58:01;;;;;;;42.40;13.48;;;;;;;5.98;78.79;101667.16;4998226;28;20049;-43
2023/02/14 11:00:34;;;;;;;38.90;11.23;;;;;;;6.01;79.06;101659.56;5001929;28;20323;-43
2023/02/14 11:03:05;;;;;;;49.78;13.13;;;;;;;6.06;79.16;101670.09;5003572;28;20041;-42
2023/02/14 11:05:40;;;;;;;36.72;11.75;;;;;;;6.11;79.69;101670.28;5010921;28;20520;-42
2023/02/14 11:10:50;;;;;;;44.17;13.07;;;;;;;6.21;80.12;101663.84;5039127;27;20401;-42
2023/02/14 11:13:27;;;;;;;48.55;14.25;;;;;;;6.29;79.37;101665.88;5042126;28;20508;-43
2023/02/14 11:15:58;;;;;;;56.45;15.05;;;;;;;6.38;78.73;101667.97;5031744;28;20044;-43
2023/02/14 11:18:31;;;;;;;51.03;15.32;;;;;;;6.42;79.98;101664.69;5035628;28;20045;-42
2023/02/14 11:21:09;;;;;;;49.63;13.98;;;;;;;6.47;79.60;101661.41;5071273;28;20059;-43
2023/02/14 11:23:41;;;;;;;45.67;14.88;;;;;;;6.53;80.05;101656.53;5038126;28;20075;-43
2023/02/14 11:26:16;;;;;;;69.90;15.88;;;;;;;6.59;78.81;101654.22;5042610;28;20072;-43
2023/02/14 11:29:02;;;;;;;46.22;13.90;;;;;;;6.63;79.08;101645.78;5038385;28;20061;-43
2023/02/14 11:31:34;;;;;;;48.08;13.73;;;;;;;6.71;79.51;101640.03;5027189;28;20042;-43
2023/02/14 11:34:04;;;;;;;42.92;14.32;;;;;;;6.76;79.54;101638.53;5035084;28;20482;-43
2023/02/14 11:36:31;;;;;;;36.67;12.48;;;;;;;6.75;80.31;101631.63;5037555;28;20072;-44
2023/02/14 11:39:07;;;;;;;41.38;15.30;;;;;;;6.83;78.88;101627.66;5038556;28;20430;-43
2023/02/14 11:41:50;;;;;;;42.78;13.65;;;;;;;6.91;79.58;101626.25;5031577;28;20127;-43
2023/02/14 11:44:21;;;;;;;49.40;14.73;;;;;;;7.02;79.69;101626.63;5036102;28;20559;-43
2023/02/14 11:46:50;;;;;;;38.65;12.90;;;;;;;7.07;78.51;101616.50;5029739;28;20100;-43
2023/02/14 11:52:16;;;;;;;47.28;15.30;;;;;;;7.24;78.99;101609.41;5071571;27;20410;-43
2023/02/14 11:54:48;;;;;;;54.42;16.23;;;;;;;7.36;79.01;101611.53;5053957;28;20122;-44
2023/02/14 11:57:27;;;;;;;57.72;16.92;;;;;;;7.46;79.12;101613.63;5054346;28;20087;-43
2023/02/14 11:59:55;;;;;;;44.42;15.48;;;;;;;7.58;79.37;101612.28;5049005;28;20049;-44
2023/02/14 12:05:16;;;;;;;45.30;18.27;;;;;;;7.99;79.70;101601.63;5071656;27;21994;-43
2023/02/14 12:07:45;;;;;;;33.33;13.32;;;;;;;7.89;79.06;101600.44;5076923;28;20573;-43
2023/02/14 12:31:40;;;;;;;33.78;14.45;;;;;;;8.95;77.89;101584.78;5017540;27;20409;-45
2023/02/14 12:34:10;;;;;;;30.35;12.77;;;;;;;9.07;77.62;101589.41;5019355;28;20478;-44
2023/02/14 12:48:14;;;;;;;29.25;12.43;;;;;;;9.60;76.69;101585.66;5082677;27;20384;-44
2023/02/14 13:04:37;;;;;;;30.77;12.20;;;;;;;9.82;75.33;101566.38;5004654;27;20407;-46
2023/02/14 13:09:58;;;;;;;28.20;12.38;;;;;;;9.92;75.38;101546.78;5040685;27;20398;-44
2023/02/14 13:17:51;;;;;;;26.67;11.82;;;;;;;9.99;74.97;101540.91;5069499;27;20402;-45
2023/02/14 13:23:12;;;;;;;24.55;10.77;;;;;;;9.93;74.53;101532.97;4997284;28;21133;-45
2023/02/14 13:25:48;;;;;;;28.98;12.38;;;;;;;9.98;74.51;101536.59;4992934;28;20141;-46
2023/02/14 13:28:16;;;;;;;28.48;11.88;;;;;;;10.13;74.41;101530.88;4994105;28;20057;-45
2023/02/14 13:30:43;;;;;;;26.42;11.85;;;;;;;10.23;73.40;101537.13;4987147;28;20648;-45
2023/02/14 13:33:25;;;;;;;27.73;11.20;;;;;;;10.20;73.49;101526.69;4996386;28;20173;-45
2023/02/14 13:35:58;;;;;;;29.17;13.07;;;;;;;10.17;73.64;101526.66;5034366;28;20053;-46
2023/02/14 13:38:27;;;;;;;25.02;11.75;;;;;;;10.14;73.46;101526.59;5021731;28;20069;-45
2023/02/14 13:40:56;;;;;;;26.65;12.07;;;;;;;10.12;73.75;101518.78;5007744;28;20140;-44
2023/02/14 13:43:44;;;;;;;29.60;12.48;;;;;;;10.09;73.66;101517.81;5036162;28;20049;-45
2023/02/14 13:46:13;;;;;;;28.42;13.10;;;;;;;10.15;74.16;101515.38;5031317;28;20373;-45
2023/02/14 13:48:42;;;;;;;32.38;13.63;;;;;;;10.18;74.21;101514.56;5004678;28;20042;-44
2023/02/14 13:51:09;;;;;;;31.25;12.45;;;;;;;10.19;74.23;101512.00;5009310;28;20065;-45
2023/02/14 13:59:00;;;;;;;28.05;12.77;;;;;;;10.14;73.49;101505.88;5045463;27;20397;-46
2023/02/14 14:01:49;;;;;;;31.13;13.43;;;;;;;10.11;73.63;101501.50;5074029;28;20070;-44
2023/02/14 14:04:36;;;;;;;31.42;13.23;;;;;;;10.12;73.51;101497.19;5085166;28;20504;-44